Weather History for Newcastle, WY

Change the Weather History Date:

Saturday, July 13, 2013

  Actual Average (KCUT) Record (KCUT)
Temperature  
Mean Temperature 76 °F 66 °F  
Max Temperature 89 °F 80 °F 95 °F (1954)
Min Temperature 62 °F 52 °F 30 °F (1950)
Degree Days  
Heating Degree Days 0 2  
Month to date heating degree days 30  
Since 1 June heating degree days 250  
Since 1 July heating degree days 30  
Cooling Degree Days 10 3  
Month to date cooling degree days 29  
Year to date cooling degree days 55  
Since 1 June cooling degree days 54  
Growing Degree Days 26 (Base 50)    
Moisture  
Dew Point 53 °F    
Average Humidity 46    
Maximum Humidity 77    
Minimum Humidity 20    
Precipitation  
Precipitation 0.00 in 0.09 in 2.76 in (1929)
Month to date precipitation 1.02  
Year to date precipitation 11.35  
Sea Level Pressure  
Sea Level Pressure 30.03 in    
Wind  
Wind Speed 7 mph (SE)    
Max Wind Speed 14 mph    
Max Gust Speed 20 mph    
Visibility 10 miles    
Events      
T = Trace of Precipitation, MM = Missing Value Source: NWS Daily Summary

Daily Weather History Graph

Daily Weather History Graph

Search for Another Location

Airport:

Trip Planner

Search our weather history database for the weather conditions in past years. The results will help you decide how hot, cold, wet, or windy it might be!

Date:

Astronomy

Jul. 13, 2013 Rise Set
Actual Time 5:27 AM MDT 8:38 PM MDT
Civil Twilight 4:52 AM MDT 9:13 PM MDT
Nautical Twilight 4:07 AM MDT 9:58 PM MDT
Astronomical Twilight 3:11 AM MDT 10:53 PM MDT
Moon 10:58 AM MDT (7/13) 11:06 PM MDT (7/13)
Length of Visible Light 16h 21m
Length of Day
15h 11m
Waxing Crescent, 26% of the Moon is Illuminated
Jul 13
Waxing Crescent
Jul 15
First Quarter
Jul 22
Full
Jul 29
Last Quarter
Aug 6
New

Hourly Weather History & Observations

Time (MDT) Temp. Heat Index Dew Point Humidity Pressure Visibility Wind Dir Wind Speed Gust Speed Precip Events Conditions
12:15 AM 71.6 °F - 55.4 °F 57% 30.04 in 10.0 mi North - - N/A   Clear
12:35 AM 71.6 °F - 55.4 °F 57% 30.04 in 10.0 mi ESE 6.9 mph - N/A   Clear
12:55 AM 69.8 °F - 55.4 °F 60% 30.04 in 10.0 mi SE 9.2 mph - N/A   Clear
1:15 AM 69.8 °F - 55.4 °F 60% 30.03 in 10.0 mi ESE 6.9 mph - N/A   Clear
1:35 AM 69.8 °F - 55.4 °F 60% 30.03 in 10.0 mi ESE 8.1 mph - N/A   Clear
1:55 AM 69.8 °F - 55.4 °F 60% 30.03 in 10.0 mi ESE 6.9 mph - N/A   Clear
2:15 AM 69.8 °F - 55.4 °F 60% 30.03 in 10.0 mi ESE 8.1 mph - N/A   Scattered Clouds
2:35 AM 69.8 °F - 55.4 °F 60% 30.02 in 10.0 mi North - - N/A   Clear
2:55 AM 68.0 °F - 55.4 °F 64% 30.02 in 10.0 mi SE 8.1 mph - N/A   Clear
3:15 AM 68.0 °F - 55.4 °F 64% 30.02 in 10.0 mi SE 5.8 mph - N/A   Clear
3:35 AM 64.4 °F - 55.4 °F 73% 30.02 in 10.0 mi SE 6.9 mph - N/A   Clear
3:55 AM 64.4 °F - 55.4 °F 73% 30.01 in 10.0 mi SE 8.1 mph - N/A   Clear
4:15 AM 64.4 °F - 55.4 °F 73% 30.02 in 10.0 mi SE 8.1 mph - N/A   Clear
4:35 AM 62.6 °F - 55.4 °F 77% 30.02 in 10.0 mi SE 8.1 mph - N/A   Clear
4:55 AM 62.6 °F - 55.4 °F 77% 30.02 in 10.0 mi SE 8.1 mph - N/A   Clear
5:15 AM 62.6 °F - 53.6 °F 72% 30.02 in 10.0 mi SE 8.1 mph - N/A   Clear
5:35 AM 62.6 °F - 53.6 °F 72% 30.03 in 10.0 mi SE 8.1 mph - N/A   Clear
5:55 AM 62.6 °F - 53.6 °F 72% 30.04 in 10.0 mi SE 6.9 mph - N/A   Clear
6:15 AM 62.6 °F - 55.4 °F 77% 30.03 in 10.0 mi North - - N/A   Clear
6:35 AM 64.4 °F - 55.4 °F 73% 30.03 in 10.0 mi SSE 5.8 mph - N/A   Clear
6:55 AM 68.0 °F - 55.4 °F 64% 30.03 in 10.0 mi SSE 5.8 mph - N/A   Clear
7:15 AM 69.8 °F - 55.4 °F 60% 30.04 in 10.0 mi South 6.9 mph - N/A   Clear
7:35 AM 69.8 °F - 55.4 °F 60% 30.04 in 10.0 mi SSE 6.9 mph - N/A   Clear
7:55 AM 69.8 °F - 55.4 °F 60% 30.04 in 10.0 mi SSE 9.2 mph - N/A   Clear
8:15 AM 71.6 °F - 57.2 °F 60% 30.04 in 10.0 mi SSE 8.1 mph - N/A   Clear
8:35 AM 73.4 °F - 55.4 °F 53% 30.04 in 10.0 mi SSE 9.2 mph - N/A   Clear
8:55 AM 73.4 °F - 55.4 °F 53% 30.05 in 10.0 mi SSE 10.4 mph - N/A   Clear
9:15 AM 73.4 °F - 57.2 °F 57% 30.05 in 10.0 mi SE 10.4 mph - N/A   Clear
9:35 AM 75.2 °F - 57.2 °F 53% 30.04 in 10.0 mi SSE 12.7 mph - N/A   Clear
9:55 AM 77.0 °F - 59.0 °F 54% 30.04 in 10.0 mi SSE 13.8 mph 19.6 mph N/A   Clear
10:15 AM 78.8 °F - 57.2 °F 47% 30.04 in 10.0 mi SSE 13.8 mph 17.3 mph N/A   Clear
10:35 AM 78.8 °F - 57.2 °F 47% 30.04 in 10.0 mi SSE 12.7 mph 19.6 mph N/A   Clear
10:55 AM 78.8 °F - 57.2 °F 47% 30.04 in 10.0 mi SE 10.4 mph - N/A   Clear
11:15 AM 78.8 °F - 55.4 °F 44% 30.04 in 10.0 mi North - - N/A   Clear
11:35 AM 80.6 °F 80.5 °F 55.4 °F 42% 30.04 in 10.0 mi SSE 12.7 mph - N/A   Clear
11:55 AM 80.6 °F 80.5 °F 55.4 °F 42% 30.04 in 10.0 mi South 11.5 mph - N/A   Clear
12:15 PM 82.4 °F 81.4 °F 53.6 °F 37% 30.04 in 10.0 mi ESE 8.1 mph - N/A   Clear
12:35 PM 82.4 °F 81.4 °F 53.6 °F 37% 30.04 in 10.0 mi North - - N/A   Clear
12:55 PM 84.2 °F - 51.8 °F 33% 30.04 in 10.0 mi SE 9.2 mph - N/A   Clear
1:15 PM 84.2 °F - 50.0 °F 30% 30.03 in 10.0 mi North - - N/A   Clear
1:35 PM 86.0 °F - 51.8 °F 31% 30.03 in 10.0 mi SE 6.9 mph - N/A   Clear
1:55 PM 86.0 °F - 50.0 °F 29% 30.03 in 10.0 mi South 6.9 mph - N/A   Clear
2:15 PM 87.8 °F - 50.0 °F 27% 30.02 in 10.0 mi East 6.9 mph - N/A   Clear
2:35 PM 87.8 °F - 48.2 °F 25% 30.02 in 10.0 mi SSE 5.8 mph - N/A   Clear
2:55 PM 87.8 °F - 44.6 °F 22% 30.01 in 10.0 mi West 4.6 mph - N/A   Clear
3:15 PM 89.6 °F - 44.6 °F 21% 30.00 in 10.0 mi SSE 5.8 mph - N/A   Clear
3:35 PM 89.6 °F - 44.6 °F 21% 30.00 in 10.0 mi Calm Calm - N/A   Clear
3:55 PM 89.6 °F - 42.8 °F 20% 30.00 in 10.0 mi Calm Calm - N/A   Clear
4:15 PM 89.6 °F - 42.8 °F 20% 30.00 in 10.0 mi ESE 3.5 mph - N/A   Clear
4:35 PM 87.8 °F - 44.6 °F 22% 30.00 in 10.0 mi NW 3.5 mph - N/A   Clear
4:55 PM 87.8 °F - 42.8 °F 21% 30.00 in 10.0 mi Calm Calm - N/A   Clear
5:15 PM 89.6 °F - 42.8 °F 20% 29.99 in 10.0 mi Calm Calm - N/A   Clear
5:35 PM 89.6 °F - 42.8 °F 20% 29.99 in 10.0 mi Calm Calm - N/A   Clear
5:55 PM 89.6 °F - 42.8 °F 20% 29.99 in 10.0 mi Calm Calm - N/A   Clear
6:15 PM 89.6 °F - 42.8 °F 20% 29.99 in 10.0 mi Calm Calm - N/A   Clear
6:35 PM 87.8 °F - 44.6 °F 22% 29.99 in 10.0 mi SSE 3.5 mph - N/A   Clear
6:55 PM 87.8 °F - 46.4 °F 24% 29.99 in 10.0 mi Calm Calm - N/A   Clear
7:15 PM 86.0 °F - 50.0 °F 29% 30.00 in 10.0 mi Calm Calm - N/A   Clear
7:35 PM 82.4 °F - 50.0 °F 32% 30.00 in 10.0 mi North 12.7 mph 18.4 mph N/A   Clear
7:55 PM 82.4 °F - 50.0 °F 32% 30.01 in 10.0 mi North 10.4 mph - N/A   Clear
8:15 PM 82.4 °F - 50.0 °F 32% 30.02 in 10.0 mi NNE 8.1 mph - N/A   Clear
8:35 PM 80.6 °F - 50.0 °F 34% 30.02 in 10.0 mi NNE 8.1 mph - N/A   Clear
8:55 PM 80.6 °F 80.3 °F 53.6 °F 39% 30.03 in 10.0 mi NE 8.1 mph - N/A   Clear
9:15 PM 80.6 °F 80.5 °F 55.4 °F 42% 30.04 in 10.0 mi North - - N/A   Clear
9:35 PM 80.6 °F 80.8 °F 57.2 °F 45% 30.04 in 10.0 mi North - - N/A   Clear
9:55 PM 78.8 °F - 57.2 °F 47% 30.05 in 10.0 mi ENE 9.2 mph - N/A   Clear
10:15 PM 78.8 °F - 59.0 °F 51% 30.05 in 10.0 mi North - - N/A   Clear
10:35 PM 80.6 °F 80.8 °F 57.2 °F 45% 30.05 in 10.0 mi North - - N/A   Clear
10:55 PM 78.8 °F - 57.2 °F 47% 30.05 in 10.0 mi North - - N/A   Clear
11:15 PM 78.8 °F - 57.2 °F 47% 30.05 in 10.0 mi North - - N/A   Clear
11:35 PM 78.8 °F - 57.2 °F 47% 30.05 in 10.0 mi North - - N/A   Clear
11:55 PM 78.8 °F - 57.2 °F 47% 30.06 in 10.0 mi NE 9.2 mph - N/A   Clear